sensor_id;sensor_type;location;lat;lon;timestamp;P1;durP1;ratioP1;P2;durP2;ratioP2
60436;SDS011;46289;51.992;4.498;2024-01-07T00:00:39;11.90;;;6.50;;
60436;SDS011;46289;51.992;4.498;2024-01-07T00:02:47;10.55;;;5.72;;
60436;SDS011;46289;51.992;4.498;2024-01-07T00:04:52;11.75;;;6.90;;
60436;SDS011;46289;51.992;4.498;2024-01-07T00:06:59;11.93;;;7.13;;
60436;SDS011;46289;51.992;4.498;2024-01-07T00:09:08;10.65;;;5.35;;
60436;SDS011;46289;51.992;4.498;2024-01-07T00:11:12;11.52;;;6.72;;
60436;SDS011;46289;51.992;4.498;2024-01-07T00:13:18;11.55;;;6.10;;
60436;SDS011;46289;51.992;4.498;2024-01-07T00:15:23;7.53;;;5.30;;
60436;SDS011;46289;51.992;4.498;2024-01-07T00:17:30;13.80;;;5.88;;
60436;SDS011;46289;51.992;4.498;2024-01-07T00:19:36;10.30;;;5.43;;
60436;SDS011;46289;51.992;4.498;2024-01-07T00:21:43;12.48;;;6.05;;
60436;SDS011;46289;51.992;4.498;2024-01-07T00:23:46;9.52;;;5.38;;
60436;SDS011;46289;51.992;4.498;2024-01-07T00:25:54;10.88;;;5.50;;
60436;SDS011;46289;51.992;4.498;2024-01-07T00:28:00;10.10;;;6.45;;
60436;SDS011;46289;51.992;4.498;2024-01-07T00:32:11;4.97;;;3.95;;
60436;SDS011;46289;51.992;4.498;2024-01-07T00:34:14;8.57;;;5.43;;
60436;SDS011;46289;51.992;4.498;2024-01-07T00:36:24;11.00;;;5.82;;
60436;SDS011;46289;51.992;4.498;2024-01-07T00:38:31;11.10;;;5.32;;
60436;SDS011;46289;51.992;4.498;2024-01-07T00:40:38;9.75;;;6.13;;
60436;SDS011;46289;51.992;4.498;2024-01-07T00:42:46;11.18;;;4.85;;
60436;SDS011;46289;51.992;4.498;2024-01-07T00:44:49;10.57;;;6.18;;
60436;SDS011;46289;51.992;4.498;2024-01-07T00:46:54;9.63;;;5.68;;
60436;SDS011;46289;51.992;4.498;2024-01-07T00:48:59;11.77;;;5.90;;
60436;SDS011;46289;51.992;4.498;2024-01-07T00:51:04;13.43;;;6.85;;
60436;SDS011;46289;51.992;4.498;2024-01-07T00:53:09;9.27;;;6.60;;
60436;SDS011;46289;51.992;4.498;2024-01-07T00:55:15;13.77;;;7.53;;
60436;SDS011;46289;51.992;4.498;2024-01-07T00:57:21;9.50;;;6.57;;
60436;SDS011;46289;51.992;4.498;2024-01-07T00:59:36;9.27;;;5.13;;
60436;SDS011;46289;51.992;4.498;2024-01-07T01:01:41;11.13;;;6.53;;
60436;SDS011;46289;51.992;4.498;2024-01-07T01:03:46;11.75;;;6.95;;
60436;SDS011;46289;51.992;4.498;2024-01-07T01:05:51;12.10;;;6.30;;
60436;SDS011;46289;51.992;4.498;2024-01-07T01:07:57;6.65;;;5.65;;
60436;SDS011;46289;51.992;4.498;2024-01-07T01:10:02;9.95;;;5.85;;
60436;SDS011;46289;51.992;4.498;2024-01-07T01:12:08;9.88;;;4.95;;
60436;SDS011;46289;51.992;4.498;2024-01-07T01:14:13;12.18;;;6.43;;
60436;SDS011;46289;51.992;4.498;2024-01-07T01:16:23;10.90;;;5.82;;
60436;SDS011;46289;51.992;4.498;2024-01-07T01:18:28;8.63;;;4.75;;
60436;SDS011;46289;51.992;4.498;2024-01-07T01:20:33;6.57;;;4.88;;
60436;SDS011;46289;51.992;4.498;2024-01-07T01:22:38;10.55;;;5.28;;
60436;SDS011;46289;51.992;4.498;2024-01-07T01:24:43;10.30;;;6.07;;
60436;SDS011;46289;51.992;4.498;2024-01-07T01:26:48;9.75;;;5.20;;
60436;SDS011;46289;51.992;4.498;2024-01-07T01:28:56;10.55;;;5.32;;
60436;SDS011;46289;51.992;4.498;2024-01-07T01:31:01;9.80;;;5.93;;
60436;SDS011;46289;51.992;4.498;2024-01-07T01:33:09;9.80;;;5.20;;
60436;SDS011;46289;51.992;4.498;2024-01-07T01:35:16;6.18;;;3.88;;
60436;SDS011;46289;51.992;4.498;2024-01-07T01:37:21;9.48;;;5.00;;
60436;SDS011;46289;51.992;4.498;2024-01-07T01:39:27;9.68;;;4.80;;
60436;SDS011;46289;51.992;4.498;2024-01-07T01:41:33;9.82;;;6.25;;
60436;SDS011;46289;51.992;4.498;2024-01-07T01:43:38;9.30;;;5.95;;
60436;SDS011;46289;51.992;4.498;2024-01-07T01:45:43;8.55;;;5.38;;
60436;SDS011;46289;51.992;4.498;2024-01-07T01:47:48;14.30;;;6.53;;
60436;SDS011;46289;51.992;4.498;2024-01-07T01:49:56;7.45;;;4.75;;
60436;SDS011;46289;51.992;4.498;2024-01-07T01:51:59;10.23;;;6.10;;
60436;SDS011;46289;51.992;4.498;2024-01-07T01:54:04;10.25;;;5.45;;
60436;SDS011;46289;51.992;4.498;2024-01-07T01:56:10;7.00;;;4.57;;
60436;SDS011;46289;51.992;4.498;2024-01-07T01:58:15;10.10;;;5.68;;
60436;SDS011;46289;51.992;4.498;2024-01-07T02:00:23;8.70;;;5.18;;
60436;SDS011;46289;51.992;4.498;2024-01-07T02:02:29;11.70;;;6.07;;
60436;SDS011;46289;51.992;4.498;2024-01-07T02:04:33;11.00;;;5.95;;
60436;SDS011;46289;51.992;4.498;2024-01-07T02:06:41;11.07;;;5.22;;
60436;SDS011;46289;51.992;4.498;2024-01-07T02:08:46;12.10;;;5.97;;
60436;SDS011;46289;51.992;4.498;2024-01-07T02:10:51;12.55;;;5.68;;
60436;SDS011;46289;51.992;4.498;2024-01-07T02:12:57;10.45;;;6.35;;
60436;SDS011;46289;51.992;4.498;2024-01-07T02:15:05;10.38;;;5.53;;
60436;SDS011;46289;51.992;4.498;2024-01-07T02:17:12;7.70;;;4.47;;
60436;SDS011;46289;51.992;4.498;2024-01-07T02:19:20;8.90;;;5.40;;
60436;SDS011;46289;51.992;4.498;2024-01-07T02:21:26;11.57;;;6.55;;
60436;SDS011;46289;51.992;4.498;2024-01-07T02:23:36;10.63;;;5.80;;
60436;SDS011;46289;51.992;4.498;2024-01-07T02:25:43;10.15;;;6.13;;
60436;SDS011;46289;51.992;4.498;2024-01-07T02:27:48;10.32;;;6.32;;
60436;SDS011;46289;51.992;4.498;2024-01-07T02:29:53;7.53;;;5.65;;
60436;SDS011;46289;51.992;4.498;2024-01-07T02:31:58;9.65;;;5.32;;
60436;SDS011;46289;51.992;4.498;2024-01-07T02:34:03;11.40;;;5.78;;
60436;SDS011;46289;51.992;4.498;2024-01-07T02:36:09;9.27;;;5.07;;
60436;SDS011;46289;51.992;4.498;2024-01-07T02:38:13;8.95;;;5.28;;
60436;SDS011;46289;51.992;4.498;2024-01-07T02:40:16;10.68;;;6.38;;
60436;SDS011;46289;51.992;4.498;2024-01-07T02:42:24;10.38;;;5.47;;
60436;SDS011;46289;51.992;4.498;2024-01-07T02:44:29;9.57;;;5.32;;
60436;SDS011;46289;51.992;4.498;2024-01-07T02:46:35;9.18;;;4.80;;
60436;SDS011;46289;51.992;4.498;2024-01-07T02:48:40;8.02;;;5.07;;
60436;SDS011;46289;51.992;4.498;2024-01-07T02:50:46;11.95;;;6.22;;
60436;SDS011;46289;51.992;4.498;2024-01-07T02:52:54;11.85;;;6.20;;
60436;SDS011;46289;51.992;4.498;2024-01-07T02:54:59;12.38;;;6.35;;
60436;SDS011;46289;51.992;4.498;2024-01-07T02:57:03;6.00;;;4.25;;
60436;SDS011;46289;51.992;4.498;2024-01-07T02:59:11;10.13;;;7.25;;
60436;SDS011;46289;51.992;4.498;2024-01-07T03:01:22;11.07;;;6.25;;
60436;SDS011;46289;51.992;4.498;2024-01-07T03:03:29;11.18;;;5.50;;
60436;SDS011;46289;51.992;4.498;2024-01-07T03:05:34;8.02;;;5.00;;
60436;SDS011;46289;51.992;4.498;2024-01-07T03:07:41;10.80;;;6.07;;
60436;SDS011;46289;51.992;4.498;2024-01-07T03:09:46;12.10;;;6.00;;
60436;SDS011;46289;51.992;4.498;2024-01-07T03:11:52;8.50;;;5.18;;
60436;SDS011;46289;51.992;4.498;2024-01-07T03:13:59;9.30;;;6.03;;
60436;SDS011;46289;51.992;4.498;2024-01-07T03:16:07;10.77;;;6.35;;
60436;SDS011;46289;51.992;4.498;2024-01-07T03:18:13;9.88;;;4.72;;
60436;SDS011;46289;51.992;4.498;2024-01-07T03:20:18;12.50;;;5.75;;
60436;SDS011;46289;51.992;4.498;2024-01-07T03:22:23;10.75;;;5.47;;
60436;SDS011;46289;51.992;4.498;2024-01-07T03:24:28;9.95;;;5.25;;
60436;SDS011;46289;51.992;4.498;2024-01-07T03:26:33;13.77;;;6.93;;
60436;SDS011;46289;51.992;4.498;2024-01-07T03:28:38;11.45;;;6.30;;
60436;SDS011;46289;51.992;4.498;2024-01-07T03:30:43;11.38;;;5.05;;
60436;SDS011;46289;51.992;4.498;2024-01-07T03:32:48;10.45;;;6.40;;
60436;SDS011;46289;51.992;4.498;2024-01-07T03:34:54;9.43;;;6.03;;
60436;SDS011;46289;51.992;4.498;2024-01-07T03:36:59;12.80;;;7.75;;
60436;SDS011;46289;51.992;4.498;2024-01-07T03:39:04;9.68;;;5.18;;
60436;SDS011;46289;51.992;4.498;2024-01-07T03:41:09;8.00;;;5.95;;
60436;SDS011;46289;51.992;4.498;2024-01-07T03:43:22;12.65;;;6.10;;
60436;SDS011;46289;51.992;4.498;2024-01-07T03:45:27;9.82;;;5.70;;
60436;SDS011;46289;51.992;4.498;2024-01-07T03:47:33;10.85;;;6.30;;
60436;SDS011;46289;51.992;4.498;2024-01-07T03:49:38;9.95;;;5.97;;
60436;SDS011;46289;51.992;4.498;2024-01-07T03:51:44;10.63;;;6.43;;
60436;SDS011;46289;51.992;4.498;2024-01-07T03:53:49;12.35;;;7.20;;
60436;SDS011;46289;51.992;4.498;2024-01-07T03:55:57;12.73;;;6.47;;
60436;SDS011;46289;51.992;4.498;2024-01-07T03:58:02;11.80;;;5.95;;
60436;SDS011;46289;51.992;4.498;2024-01-07T04:00:09;10.95;;;5.55;;
60436;SDS011;46289;51.992;4.498;2024-01-07T04:02:14;13.43;;;6.07;;
60436;SDS011;46289;51.992;4.498;2024-01-07T04:04:20;12.38;;;7.38;;
60436;SDS011;46289;51.992;4.498;2024-01-07T04:06:31;16.38;;;6.68;;
60436;SDS011;46289;51.992;4.498;2024-01-07T04:08:38;11.02;;;5.47;;
60436;SDS011;46289;51.992;4.498;2024-01-07T04:10:43;12.60;;;6.40;;
60436;SDS011;46289;51.992;4.498;2024-01-07T04:12:48;12.85;;;7.28;;
60436;SDS011;46289;51.992;4.498;2024-01-07T04:14:50;10.55;;;6.43;;
60436;SDS011;46289;51.992;4.498;2024-01-07T04:16:55;13.55;;;6.75;;
60436;SDS011;46289;51.992;4.498;2024-01-07T04:19:02;13.27;;;5.93;;
60436;SDS011;46289;51.992;4.498;2024-01-07T04:21:08;14.68;;;7.40;;
60436;SDS011;46289;51.992;4.498;2024-01-07T04:23:19;11.90;;;6.63;;
60436;SDS011;46289;51.992;4.498;2024-01-07T04:25:26;11.52;;;6.20;;
60436;SDS011;46289;51.992;4.498;2024-01-07T04:27:33;9.43;;;6.88;;
60436;SDS011;46289;51.992;4.498;2024-01-07T04:29:38;12.43;;;7.55;;
60436;SDS011;46289;51.992;4.498;2024-01-07T04:31:43;10.07;;;6.22;;
60436;SDS011;46289;51.992;4.498;2024-01-07T04:33:48;15.77;;;7.00;;
60436;SDS011;46289;51.992;4.498;2024-01-07T04:35:55;14.52;;;7.28;;
60436;SDS011;46289;51.992;4.498;2024-01-07T04:38:02;11.23;;;6.18;;
60436;SDS011;46289;51.992;4.498;2024-01-07T04:40:14;10.68;;;6.13;;
60436;SDS011;46289;51.992;4.498;2024-01-07T04:42:23;10.73;;;6.07;;
60436;SDS011;46289;51.992;4.498;2024-01-07T04:44:28;16.75;;;7.75;;
60436;SDS011;46289;51.992;4.498;2024-01-07T04:46:33;10.38;;;5.25;;
60436;SDS011;46289;51.992;4.498;2024-01-07T04:48:39;10.48;;;6.10;;
60436;SDS011;46289;51.992;4.498;2024-01-07T04:50:44;12.90;;;7.00;;
60436;SDS011;46289;51.992;4.498;2024-01-07T04:52:46;9.15;;;6.20;;
60436;SDS011;46289;51.992;4.498;2024-01-07T04:54:52;16.20;;;7.82;;
60436;SDS011;46289;51.992;4.498;2024-01-07T04:57:01;13.13;;;5.15;;
60436;SDS011;46289;51.992;4.498;2024-01-07T04:59:06;12.55;;;5.72;;
60436;SDS011;46289;51.992;4.498;2024-01-07T05:01:11;11.43;;;6.57;;
60436;SDS011;46289;51.992;4.498;2024-01-07T05:03:17;13.60;;;6.38;;
60436;SDS011;46289;51.992;4.498;2024-01-07T05:05:22;14.98;;;7.38;;
60436;SDS011;46289;51.992;4.498;2024-01-07T05:07:24;12.98;;;6.45;;
60436;SDS011;46289;51.992;4.498;2024-01-07T05:09:29;12.30;;;6.47;;
60436;SDS011;46289;51.992;4.498;2024-01-07T05:11:32;10.88;;;6.32;;
60436;SDS011;46289;51.992;4.498;2024-01-07T05:13:41;12.23;;;6.82;;
60436;SDS011;46289;51.992;4.498;2024-01-07T05:15:46;8.82;;;5.10;;
60436;SDS011;46289;51.992;4.498;2024-01-07T05:17:55;9.13;;;6.43;;
60436;SDS011;46289;51.992;4.498;2024-01-07T05:20:01;11.30;;;6.00;;
60436;SDS011;46289;51.992;4.498;2024-01-07T05:22:09;11.77;;;6.50;;
60436;SDS011;46289;51.992;4.498;2024-01-07T05:24:15;8.77;;;5.28;;
60436;SDS011;46289;51.992;4.498;2024-01-07T05:26:21;10.68;;;7.03;;
60436;SDS011;46289;51.992;4.498;2024-01-07T05:28:26;12.13;;;6.43;;
60436;SDS011;46289;51.992;4.498;2024-01-07T05:30:34;9.90;;;6.22;;
60436;SDS011;46289;51.992;4.498;2024-01-07T05:32:39;9.35;;;6.30;;
60436;SDS011;46289;51.992;4.498;2024-01-07T05:34:41;11.25;;;6.30;;
60436;SDS011;46289;51.992;4.498;2024-01-07T05:36:46;12.15;;;6.20;;
60436;SDS011;46289;51.992;4.498;2024-01-07T05:38:49;9.52;;;5.15;;
60436;SDS011;46289;51.992;4.498;2024-01-07T05:40:56;15.32;;;6.32;;
60436;SDS011;46289;51.992;4.498;2024-01-07T05:43:02;11.98;;;6.82;;
60436;SDS011;46289;51.992;4.498;2024-01-07T05:45:08;11.57;;;7.03;;
60436;SDS011;46289;51.992;4.498;2024-01-07T05:47:16;11.82;;;7.15;;
60436;SDS011;46289;51.992;4.498;2024-01-07T05:49:25;11.55;;;5.90;;
60436;SDS011;46289;51.992;4.498;2024-01-07T05:51:30;16.02;;;7.70;;
60436;SDS011;46289;51.992;4.498;2024-01-07T05:53:36;10.70;;;6.68;;
60436;SDS011;46289;51.992;4.498;2024-01-07T05:55:42;11.77;;;5.95;;
60436;SDS011;46289;51.992;4.498;2024-01-07T05:57:48;15.55;;;6.80;;
60436;SDS011;46289;51.992;4.498;2024-01-07T05:59:53;10.98;;;6.32;;
60436;SDS011;46289;51.992;4.498;2024-01-07T06:01:58;11.02;;;6.50;;
60436;SDS011;46289;51.992;4.498;2024-01-07T06:04:06;12.90;;;7.90;;
60436;SDS011;46289;51.992;4.498;2024-01-07T06:06:12;13.07;;;6.72;;
60436;SDS011;46289;51.992;4.498;2024-01-07T06:08:18;15.40;;;7.15;;
60436;SDS011;46289;51.992;4.498;2024-01-07T06:10:23;12.52;;;6.03;;
60436;SDS011;46289;51.992;4.498;2024-01-07T06:12:28;12.07;;;6.78;;
60436;SDS011;46289;51.992;4.498;2024-01-07T06:14:33;12.25;;;7.38;;
60436;SDS011;46289;51.992;4.498;2024-01-07T06:16:38;13.30;;;7.88;;
60436;SDS011;46289;51.992;4.498;2024-01-07T06:18:44;14.02;;;7.75;;
60436;SDS011;46289;51.992;4.498;2024-01-07T06:20:51;11.40;;;7.60;;
60436;SDS011;46289;51.992;4.498;2024-01-07T06:22:56;15.52;;;8.18;;
60436;SDS011;46289;51.992;4.498;2024-01-07T06:24:59;16.08;;;7.10;;
60436;SDS011;46289;51.992;4.498;2024-01-07T06:27:07;10.93;;;6.13;;
60436;SDS011;46289;51.992;4.498;2024-01-07T06:29:15;15.32;;;8.57;;
60436;SDS011;46289;51.992;4.498;2024-01-07T06:31:22;15.57;;;8.05;;
60436;SDS011;46289;51.992;4.498;2024-01-07T06:33:27;11.40;;;7.05;;
60436;SDS011;46289;51.992;4.498;2024-01-07T06:35:32;10.82;;;6.32;;
60436;SDS011;46289;51.992;4.498;2024-01-07T06:37:40;12.02;;;6.35;;
60436;SDS011;46289;51.992;4.498;2024-01-07T06:39:47;14.93;;;7.72;;
60436;SDS011;46289;51.992;4.498;2024-01-07T06:41:50;12.77;;;7.70;;
60436;SDS011;46289;51.992;4.498;2024-01-07T06:43:57;14.95;;;7.90;;
60436;SDS011;46289;51.992;4.498;2024-01-07T06:46:02;12.60;;;7.70;;
60436;SDS011;46289;51.992;4.498;2024-01-07T06:48:08;16.00;;;8.43;;
60436;SDS011;46289;51.992;4.498;2024-01-07T06:50:13;14.40;;;7.07;;
60436;SDS011;46289;51.992;4.498;2024-01-07T06:52:18;10.27;;;6.82;;
60436;SDS011;46289;51.992;4.498;2024-01-07T06:54:26;17.45;;;9.73;;
60436;SDS011;46289;51.992;4.498;2024-01-07T06:56:31;11.27;;;7.40;;
60436;SDS011;46289;51.992;4.498;2024-01-07T06:58:36;13.43;;;7.75;;
60436;SDS011;46289;51.992;4.498;2024-01-07T07:00:42;12.40;;;7.20;;
60436;SDS011;46289;51.992;4.498;2024-01-07T07:02:47;15.30;;;8.30;;
60436;SDS011;46289;51.992;4.498;2024-01-07T07:04:52;14.85;;;7.80;;
60436;SDS011;46289;51.992;4.498;2024-01-07T07:06:59;9.82;;;6.63;;
60436;SDS011;46289;51.992;4.498;2024-01-07T07:09:05;12.02;;;7.00;;
60436;SDS011;46289;51.992;4.498;2024-01-07T07:11:16;14.07;;;9.13;;
60436;SDS011;46289;51.992;4.498;2024-01-07T07:13:22;18.90;;;7.78;;
60436;SDS011;46289;51.992;4.498;2024-01-07T07:15:27;12.68;;;6.95;;
60436;SDS011;46289;51.992;4.498;2024-01-07T07:17:35;15.00;;;8.32;;
60436;SDS011;46289;51.992;4.498;2024-01-07T07:19:41;12.40;;;7.03;;
60436;SDS011;46289;51.992;4.498;2024-01-07T07:21:46;12.43;;;7.53;;
60436;SDS011;46289;51.992;4.498;2024-01-07T07:23:54;15.57;;;8.48;;
60436;SDS011;46289;51.992;4.498;2024-01-07T07:25:59;7.03;;;5.57;;
60436;SDS011;46289;51.992;4.498;2024-01-07T07:28:04;12.45;;;6.68;;
60436;SDS011;46289;51.992;4.498;2024-01-07T07:30:09;11.38;;;6.97;;
60436;SDS011;46289;51.992;4.498;2024-01-07T07:32:15;12.50;;;6.95;;
60436;SDS011;46289;51.992;4.498;2024-01-07T07:34:20;10.57;;;5.43;;
60436;SDS011;46289;51.992;4.498;2024-01-07T07:36:26;13.80;;;7.80;;
60436;SDS011;46289;51.992;4.498;2024-01-07T07:38:31;12.88;;;7.28;;
60436;SDS011;46289;51.992;4.498;2024-01-07T07:40:37;11.75;;;6.55;;
60436;SDS011;46289;51.992;4.498;2024-01-07T07:42:43;11.88;;;6.43;;
60436;SDS011;46289;51.992;4.498;2024-01-07T07:44:51;11.68;;;6.38;;
60436;SDS011;46289;51.992;4.498;2024-01-07T07:46:57;11.93;;;5.68;;
60436;SDS011;46289;51.992;4.498;2024-01-07T07:49:02;6.72;;;4.97;;
60436;SDS011;46289;51.992;4.498;2024-01-07T07:51:08;10.55;;;8.48;;
60436;SDS011;46289;51.992;4.498;2024-01-07T07:53:13;10.43;;;6.53;;
60436;SDS011;46289;51.992;4.498;2024-01-07T07:55:24;12.75;;;7.00;;
60436;SDS011;46289;51.992;4.498;2024-01-07T07:57:31;17.60;;;7.38;;
60436;SDS011;46289;51.992;4.498;2024-01-07T07:59:36;8.98;;;5.05;;
60436;SDS011;46289;51.992;4.498;2024-01-07T08:01:44;14.77;;;7.97;;
60436;SDS011;46289;51.992;4.498;2024-01-07T08:03:48;10.38;;;6.30;;
60436;SDS011;46289;51.992;4.498;2024-01-07T08:05:53;13.55;;;7.22;;
60436;SDS011;46289;51.992;4.498;2024-01-07T08:07:58;10.50;;;6.13;;
60436;SDS011;46289;51.992;4.498;2024-01-07T08:10:04;10.40;;;5.97;;
60436;SDS011;46289;51.992;4.498;2024-01-07T08:12:12;16.35;;;6.82;;
60436;SDS011;46289;51.992;4.498;2024-01-07T08:14:19;9.50;;;6.07;;
60436;SDS011;46289;51.992;4.498;2024-01-07T08:16:24;12.45;;;6.22;;
60436;SDS011;46289;51.992;4.498;2024-01-07T08:18:36;9.80;;;5.90;;
60436;SDS011;46289;51.992;4.498;2024-01-07T08:20:43;9.95;;;5.65;;
60436;SDS011;46289;51.992;4.498;2024-01-07T08:22:50;8.23;;;4.65;;
60436;SDS011;46289;51.992;4.498;2024-01-07T08:24:55;12.75;;;7.15;;
60436;SDS011;46289;51.992;4.498;2024-01-07T08:27:00;8.73;;;5.75;;
60436;SDS011;46289;51.992;4.498;2024-01-07T08:29:06;12.05;;;5.57;;
60436;SDS011;46289;51.992;4.498;2024-01-07T08:31:12;11.52;;;5.93;;
60436;SDS011;46289;51.992;4.498;2024-01-07T08:33:17;8.65;;;5.68;;
60436;SDS011;46289;51.992;4.498;2024-01-07T08:35:26;12.15;;;6.50;;
60436;SDS011;46289;51.992;4.498;2024-01-07T08:37:31;7.85;;;5.18;;
60436;SDS011;46289;51.992;4.498;2024-01-07T08:39:37;13.13;;;7.10;;
60436;SDS011;46289;51.992;4.498;2024-01-07T08:41:45;11.82;;;6.03;;
60436;SDS011;46289;51.992;4.498;2024-01-07T08:43:50;13.00;;;6.40;;
60436;SDS011;46289;51.992;4.498;2024-01-07T08:45:55;9.43;;;6.05;;
60436;SDS011;46289;51.992;4.498;2024-01-07T08:48:00;8.23;;;5.35;;
60436;SDS011;46289;51.992;4.498;2024-01-07T08:50:06;10.40;;;6.20;;
60436;SDS011;46289;51.992;4.498;2024-01-07T08:52:12;7.05;;;5.00;;
60436;SDS011;46289;51.992;4.498;2024-01-07T08:54:17;12.10;;;6.18;;
60436;SDS011;46289;51.992;4.498;2024-01-07T08:56:24;15.75;;;7.25;;
60436;SDS011;46289;51.992;4.498;2024-01-07T08:58:29;10.23;;;6.07;;
60436;SDS011;46289;51.992;4.498;2024-01-07T09:00:34;13.73;;;7.50;;
60436;SDS011;46289;51.992;4.498;2024-01-07T09:02:39;14.07;;;6.70;;
60436;SDS011;46289;51.992;4.498;2024-01-07T09:04:45;11.43;;;5.82;;
60436;SDS011;46289;51.992;4.498;2024-01-07T09:06:50;14.32;;;7.07;;
60436;SDS011;46289;51.992;4.498;2024-01-07T09:08:58;9.90;;;4.85;;
60436;SDS011;46289;51.992;4.498;2024-01-07T09:11:03;10.60;;;5.07;;
60436;SDS011;46289;51.992;4.498;2024-01-07T09:13:09;7.15;;;4.60;;
60436;SDS011;46289;51.992;4.498;2024-01-07T09:15:12;10.48;;;6.00;;
60436;SDS011;46289;51.992;4.498;2024-01-07T09:17:17;11.95;;;7.13;;
60436;SDS011;46289;51.992;4.498;2024-01-07T09:19:23;13.63;;;8.40;;
60436;SDS011;46289;51.992;4.498;2024-01-07T09:21:30;10.23;;;5.20;;
60436;SDS011;46289;51.992;4.498;2024-01-07T09:23:36;12.05;;;5.93;;
60436;SDS011;46289;51.992;4.498;2024-01-07T09:25:46;10.57;;;6.07;;
60436;SDS011;46289;51.992;4.498;2024-01-07T09:27:55;9.45;;;5.05;;
60436;SDS011;46289;51.992;4.498;2024-01-07T09:30:00;9.18;;;5.60;;
60436;SDS011;46289;51.992;4.498;2024-01-07T09:32:07;10.27;;;4.85;;
60436;SDS011;46289;51.992;4.498;2024-01-07T09:34:12;10.60;;;6.65;;
60436;SDS011;46289;51.992;4.498;2024-01-07T09:36:17;13.32;;;5.75;;
60436;SDS011;46289;51.992;4.498;2024-01-07T09:38:31;9.52;;;5.30;;
60436;SDS011;46289;51.992;4.498;2024-01-07T09:40:38;9.32;;;5.85;;
60436;SDS011;46289;51.992;4.498;2024-01-07T09:42:48;8.27;;;5.15;;
60436;SDS011;46289;51.992;4.498;2024-01-07T09:44:54;6.80;;;4.28;;
60436;SDS011;46289;51.992;4.498;2024-01-07T09:47:00;9.73;;;5.32;;
60436;SDS011;46289;51.992;4.498;2024-01-07T09:49:06;14.65;;;6.18;;
60436;SDS011;46289;51.992;4.498;2024-01-07T09:51:12;10.93;;;5.97;;
60436;SDS011;46289;51.992;4.498;2024-01-07T09:53:17;8.50;;;5.25;;
60436;SDS011;46289;51.992;4.498;2024-01-07T09:55:31;8.90;;;5.32;;
60436;SDS011;46289;51.992;4.498;2024-01-07T09:57:41;10.07;;;6.72;;
60436;SDS011;46289;51.992;4.498;2024-01-07T09:59:52;10.30;;;4.78;;
60436;SDS011;46289;51.992;4.498;2024-01-07T10:01:57;6.80;;;4.88;;
60436;SDS011;46289;51.992;4.498;2024-01-07T10:04:05;9.13;;;6.03;;
60436;SDS011;46289;51.992;4.498;2024-01-07T10:06:13;9.25;;;4.43;;
60436;SDS011;46289;51.992;4.498;2024-01-07T10:08:22;9.88;;;4.57;;
60436;SDS011;46289;51.992;4.498;2024-01-07T10:10:31;10.05;;;5.22;;
60436;SDS011;46289;51.992;4.498;2024-01-07T10:12:39;10.10;;;6.30;;
60436;SDS011;46289;51.992;4.498;2024-01-07T10:14:44;13.35;;;5.10;;
60436;SDS011;46289;51.992;4.498;2024-01-07T10:16:55;10.70;;;5.30;;
60436;SDS011;46289;51.992;4.498;2024-01-07T10:19:00;7.43;;;4.00;;
60436;SDS011;46289;51.992;4.498;2024-01-07T10:21:06;10.30;;;6.07;;
60436;SDS011;46289;51.992;4.498;2024-01-07T10:23:12;15.38;;;5.13;;
60436;SDS011;46289;51.992;4.498;2024-01-07T10:25:18;7.38;;;4.13;;
60436;SDS011;46289;51.992;4.498;2024-01-07T10:27:24;8.48;;;5.03;;
60436;SDS011;46289;51.992;4.498;2024-01-07T10:29:29;9.38;;;6.50;;
60436;SDS011;46289;51.992;4.498;2024-01-07T10:31:35;9.07;;;6.55;;
60436;SDS011;46289;51.992;4.498;2024-01-07T10:33:47;11.07;;;5.53;;
60436;SDS011;46289;51.992;4.498;2024-01-07T10:35:57;10.40;;;4.32;;
60436;SDS011;46289;51.992;4.498;2024-01-07T10:38:07;8.60;;;5.28;;
60436;SDS011;46289;51.992;4.498;2024-01-07T10:40:15;4.07;;;3.10;;
60436;SDS011;46289;51.992;4.498;2024-01-07T10:42:18;10.65;;;5.07;;
60436;SDS011;46289;51.992;4.498;2024-01-07T10:44:27;7.38;;;4.35;;
60436;SDS011;46289;51.992;4.498;2024-01-07T10:46:38;5.63;;;4.20;;
60436;SDS011;46289;51.992;4.498;2024-01-07T10:48:43;7.95;;;4.57;;
60436;SDS011;46289;51.992;4.498;2024-01-07T10:50:58;5.57;;;4.07;;
60436;SDS011;46289;51.992;4.498;2024-01-07T10:53:04;5.93;;;4.45;;
60436;SDS011;46289;51.992;4.498;2024-01-07T10:55:14;7.07;;;4.35;;
60436;SDS011;46289;51.992;4.498;2024-01-07T10:57:26;6.20;;;4.13;;
60436;SDS011;46289;51.992;4.498;2024-01-07T10:59:38;6.63;;;4.30;;
60436;SDS011;46289;51.992;4.498;2024-01-07T11:01:45;5.25;;;3.63;;
60436;SDS011;46289;51.992;4.498;2024-01-07T11:03:55;13.23;;;4.13;;
60436;SDS011;46289;51.992;4.498;2024-01-07T11:06:08;6.85;;;4.70;;
60436;SDS011;46289;51.992;4.498;2024-01-07T11:08:21;5.72;;;3.92;;
60436;SDS011;46289;51.992;4.498;2024-01-07T11:10:31;3.42;;;2.70;;
60436;SDS011;46289;51.992;4.498;2024-01-07T11:12:53;2.97;;;2.38;;
60436;SDS011;46289;51.992;4.498;2024-01-07T11:14:59;4.28;;;3.33;;
60436;SDS011;46289;51.992;4.498;2024-01-07T11:17:02;6.10;;;4.40;;
60436;SDS011;46289;51.992;4.498;2024-01-07T11:19:11;6.85;;;3.28;;
60436;SDS011;46289;51.992;4.498;2024-01-07T11:21:20;6.13;;;4.07;;
60436;SDS011;46289;51.992;4.498;2024-01-07T11:23:27;8.75;;;3.80;;
60436;SDS011;46289;51.992;4.498;2024-01-07T11:25:39;6.15;;;3.88;;
60436;SDS011;46289;51.992;4.498;2024-01-07T11:27:44;8.43;;;5.43;;
60436;SDS011;46289;51.992;4.498;2024-01-07T11:29:53;6.60;;;3.90;;
60436;SDS011;46289;51.992;4.498;2024-01-07T11:31:59;4.95;;;2.85;;
60436;SDS011;46289;51.992;4.498;2024-01-07T11:34:04;6.15;;;3.40;;
60436;SDS011;46289;51.992;4.498;2024-01-07T11:36:13;5.30;;;3.67;;
60436;SDS011;46289;51.992;4.498;2024-01-07T11:38:18;7.85;;;2.83;;
60436;SDS011;46289;51.992;4.498;2024-01-07T11:40:24;4.88;;;3.40;;
60436;SDS011;46289;51.992;4.498;2024-01-07T11:42:34;6.90;;;3.47;;
60436;SDS011;46289;51.992;4.498;2024-01-07T11:44:44;3.45;;;2.55;;
60436;SDS011;46289;51.992;4.498;2024-01-07T11:46:52;6.20;;;3.80;;
60436;SDS011;46289;51.992;4.498;2024-01-07T11:48:58;4.18;;;2.78;;
60436;SDS011;46289;51.992;4.498;2024-01-07T11:51:04;7.05;;;4.32;;
60436;SDS011;46289;51.992;4.498;2024-01-07T11:53:15;9.60;;;4.18;;
60436;SDS011;46289;51.992;4.498;2024-01-07T11:55:21;5.65;;;3.15;;
60436;SDS011;46289;51.992;4.498;2024-01-07T11:57:28;2.90;;;2.33;;
60436;SDS011;46289;51.992;4.498;2024-01-07T11:59:38;5.25;;;3.22;;
60436;SDS011;46289;51.992;4.498;2024-01-07T12:01:46;6.80;;;4.38;;
60436;SDS011;46289;51.992;4.498;2024-01-07T12:03:51;6.78;;;3.80;;
60436;SDS011;46289;51.992;4.498;2024-01-07T12:05:56;5.22;;;2.67;;
60436;SDS011;46289;51.992;4.498;2024-01-07T12:08:02;5.47;;;3.33;;
60436;SDS011;46289;51.992;4.498;2024-01-07T12:10:11;3.90;;;2.08;;
60436;SDS011;46289;51.992;4.498;2024-01-07T12:12:23;4.22;;;2.15;;
60436;SDS011;46289;51.992;4.498;2024-01-07T12:14:30;6.75;;;2.95;;
60436;SDS011;46289;51.992;4.498;2024-01-07T12:16:38;5.80;;;3.10;;
60436;SDS011;46289;51.992;4.498;2024-01-07T12:18:43;8.73;;;3.05;;
60436;SDS011;46289;51.992;4.498;2024-01-07T12:20:55;5.05;;;3.30;;
60436;SDS011;46289;51.992;4.498;2024-01-07T12:23:07;5.88;;;3.30;;
60436;SDS011;46289;51.992;4.498;2024-01-07T12:25:23;8.15;;;2.95;;
60436;SDS011;46289;51.992;4.498;2024-01-07T12:27:26;5.30;;;2.95;;
60436;SDS011;46289;51.992;4.498;2024-01-07T12:29:32;5.40;;;2.88;;
60436;SDS011;46289;51.992;4.498;2024-01-07T12:31:38;4.57;;;3.17;;
60436;SDS011;46289;51.992;4.498;2024-01-07T12:33:41;5.82;;;3.47;;
60436;SDS011;46289;51.992;4.498;2024-01-07T12:35:48;4.45;;;2.35;;
60436;SDS011;46289;51.992;4.498;2024-01-07T12:37:53;4.15;;;2.63;;